createdAt,value
2023-04-17T00:02:48.491Z,10.50
2023-04-17T00:07:52.194Z,10.40
2023-04-17T00:12:56.820Z,10.67
2023-04-17T00:18:01.540Z,10.53
2023-04-17T00:23:04.987Z,9.43
2023-04-17T00:28:08.124Z,9.47
2023-04-17T00:33:15.635Z,9.10
2023-04-17T00:38:19.143Z,9.83
2023-04-17T00:43:22.452Z,9.13
2023-04-17T00:48:28.180Z,9.33
2023-04-17T00:53:32.437Z,9.67
2023-04-17T00:58:38.367Z,8.97
2023-04-17T01:03:43.756Z,8.57
2023-04-17T01:08:48.147Z,7.87
2023-04-17T01:13:52.241Z,8.07
2023-04-17T01:18:57.254Z,8.07
2023-04-17T01:24:04.040Z,8.47
2023-04-17T01:29:07.956Z,8.67
2023-04-17T01:34:12.242Z,8.90
2023-04-17T01:39:17.626Z,8.30
2023-04-17T01:44:20.936Z,8.50
2023-04-17T01:49:24.299Z,8.57
2023-04-17T01:54:28.970Z,8.70
2023-04-17T01:59:32.176Z,8.50
2023-04-17T02:04:35.610Z,9.20
2023-04-17T02:09:40.437Z,9.97
2023-04-17T02:14:43.848Z,10.20
2023-04-17T02:19:47.117Z,10.33
2023-04-17T02:24:51.710Z,10.40
2023-04-17T02:29:54.877Z,10.80
2023-04-17T02:34:58.297Z,10.70
2023-04-17T02:40:03.176Z,11.40
2023-04-17T02:45:07.925Z,11.43
2023-04-17T02:50:12.634Z,11.53
2023-04-17T02:55:20.215Z,10.73
2023-04-17T03:00:24.501Z,10.60
2023-04-17T03:05:30.563Z,10.70
2023-04-17T03:10:35.838Z,11.27
2023-04-17T03:15:39.137Z,10.67
2023-04-17T03:20:42.992Z,10.70
2023-04-17T03:25:47.706Z,11.00
2023-04-17T03:30:54.414Z,11.17
2023-04-17T03:35:57.864Z,11.77
2023-04-17T03:41:02.645Z,12.70
2023-04-17T03:46:07.736Z,12.27
2023-04-17T03:51:11.277Z,12.13
2023-04-17T03:56:31.729Z,11.57
2023-04-17T04:01:54.303Z,12.00
2023-04-17T04:07:09.125Z,12.10
2023-04-17T04:12:22.470Z,12.13
2023-04-17T04:17:26.890Z,12.73
2023-04-17T04:22:33.120Z,11.80
2023-04-17T04:27:38.005Z,12.33
2023-04-17T04:32:41.375Z,12.57
2023-04-17T04:37:46.625Z,12.23
2023-04-17T04:42:51.307Z,12.17
2023-04-17T04:47:54.714Z,11.97
2023-04-17T04:52:57.937Z,13.67
2023-04-17T04:58:02.907Z,12.13
2023-04-17T05:03:06.753Z,13.00
2023-04-17T05:08:10.380Z,13.70
2023-04-17T05:13:15.160Z,11.77
2023-04-17T05:18:20.300Z,13.23
2023-04-17T05:23:23.454Z,14.93
2023-04-17T05:28:29.854Z,12.97
2023-04-17T05:33:37.856Z,11.33
2023-04-17T05:38:41.488Z,10.53
2023-04-17T05:43:51.052Z,10.80
2023-04-17T05:48:54.451Z,9.97
2023-04-17T05:54:03.804Z,9.47
2023-04-17T05:59:08.456Z,11.27
2023-04-17T06:04:18.794Z,11.83
2023-04-17T06:09:24.480Z,12.03
2023-04-17T06:14:33.463Z,11.67
2023-04-17T06:19:36.675Z,14.07
2023-04-17T06:24:39.933Z,12.43
2023-04-17T06:29:44.779Z,11.97
2023-04-17T06:34:59.047Z,12.00
2023-04-17T06:40:02.457Z,11.60
2023-04-17T06:45:08.444Z,12.23
2023-04-17T06:50:12.064Z,13.40
2023-04-17T06:55:15.412Z,12.93
2023-04-17T07:00:21.475Z,12.30
2023-04-17T07:05:24.902Z,13.43
2023-04-17T07:10:28.420Z,12.93
2023-04-17T07:15:33.676Z,12.13
2023-04-17T07:20:39.976Z,11.70
2023-04-17T07:25:43.443Z,11.97
2023-04-17T07:30:48.322Z,11.23
2023-04-17T07:35:51.602Z,10.17
2023-04-17T07:40:54.830Z,10.37
2023-04-17T07:46:00.035Z,11.23
2023-04-17T07:51:04.473Z,11.33
2023-04-17T07:56:07.915Z,10.30
2023-04-17T08:01:12.489Z,11.37
2023-04-17T08:06:15.665Z,9.90
2023-04-17T08:11:18.855Z,9.83
2023-04-17T08:16:23.623Z,9.63
2023-04-17T08:21:26.933Z,9.10
2023-04-17T08:26:30.195Z,9.77
2023-04-17T08:31:36.757Z,9.53
2023-04-17T08:36:41.025Z,9.63
2023-04-17T08:41:50.573Z,9.13
2023-04-17T08:46:57.973Z,9.00
2023-04-17T08:52:03.497Z,9.30
2023-04-17T08:57:07.219Z,8.93
2023-04-17T09:02:11.928Z,8.27
2023-04-17T09:07:16.730Z,7.70
2023-04-17T09:12:20.341Z,7.73
2023-04-17T09:17:37.974Z,7.70
2023-04-17T09:22:42.421Z,7.85
2023-04-17T09:27:45.852Z,7.75
2023-04-17T09:33:03.894Z,6.83
2023-04-17T09:38:07.500Z,7.22
2023-04-17T09:43:11.660Z,6.70
2023-04-17T09:48:17.639Z,7.18
2023-04-17T09:53:21.318Z,7.18
2023-04-17T09:58:24.890Z,6.38
2023-04-17T10:03:30.117Z,6.95
2023-04-17T10:08:34.081Z,6.40
2023-04-17T10:13:42.997Z,7.20
2023-04-17T10:18:47.711Z,6.30
2023-04-17T10:23:51.169Z,6.25
2023-04-17T10:28:56.003Z,5.95
2023-04-17T10:34:01.045Z,5.72
2023-04-17T10:39:14.351Z,5.93
2023-04-17T10:44:19.451Z,6.05
2023-04-17T10:49:24.199Z,6.20
2023-04-17T10:54:27.612Z,6.10
2023-04-17T10:59:31.036Z,7.15
2023-04-17T11:04:36.647Z,6.13
2023-04-17T11:09:41.445Z,7.03
2023-04-17T11:14:44.548Z,6.68
2023-04-17T11:19:49.118Z,6.22
2023-04-17T11:24:53.030Z,7.25
2023-04-17T11:29:56.360Z,7.07
2023-04-17T11:35:01.167Z,6.78
2023-04-17T11:40:10.234Z,6.05
2023-04-17T11:45:13.699Z,6.63
2023-04-17T11:50:18.688Z,6.05
2023-04-17T11:55:21.969Z,6.07
2023-04-17T12:00:29.387Z,5.50
2023-04-17T12:05:34.108Z,5.57
2023-04-17T12:10:39.554Z,5.47
2023-04-17T12:15:42.944Z,5.10
2023-04-17T12:20:47.918Z,19.40
2023-04-17T12:25:51.120Z,6.57
2023-04-17T12:30:54.572Z,6.22
2023-04-17T12:36:00.159Z,5.82
2023-04-17T12:41:03.447Z,5.60
2023-04-17T12:46:07.058Z,6.57
2023-04-17T12:51:11.980Z,6.53
2023-04-17T12:56:15.679Z,6.10
2023-04-17T13:01:19.663Z,6.28
2023-04-17T13:06:24.306Z,6.07
2023-04-17T13:11:28.071Z,5.97
2023-04-17T13:16:32.193Z,6.15
2023-04-17T13:21:37.012Z,6.30
2023-04-17T13:26:40.489Z,6.50
2023-04-17T13:31:44.426Z,6.78
2023-04-17T13:36:49.827Z,6.97
2023-04-17T13:41:53.515Z,6.47
2023-04-17T13:46:56.853Z,6.65
2023-04-17T13:52:03.347Z,6.40
2023-04-17T13:57:06.783Z,7.07
2023-04-17T14:02:10.419Z,6.35
2023-04-17T14:07:18.403Z,6.20
2023-04-17T14:12:24.775Z,6.55
2023-04-17T14:17:28.000Z,5.95
2023-04-17T14:22:32.477Z,6.22
2023-04-17T14:27:39.694Z,7.40
2023-04-17T14:32:43.182Z,6.80
2023-04-17T14:37:48.578Z,6.80
2023-04-17T14:42:55.202Z,6.38
2023-04-17T14:47:59.248Z,6.53
2023-04-17T14:53:04.579Z,7.75
2023-04-17T14:58:07.740Z,5.95
2023-04-17T15:03:11.523Z,6.20
2023-04-17T15:08:16.932Z,6.22
2023-04-17T15:13:20.620Z,6.13
2023-04-17T15:18:24.064Z,6.32
2023-04-17T15:23:29.988Z,6.68
2023-04-17T15:28:34.137Z,5.85
2023-04-17T15:33:37.845Z,8.05
2023-04-17T15:38:42.505Z,8.30
2023-04-17T15:43:45.771Z,8.13
2023-04-17T15:49:04.653Z,7.72
2023-04-17T15:54:12.284Z,8.52
2023-04-17T15:59:16.485Z,8.00
2023-04-17T16:04:23.134Z,7.93
2023-04-17T16:09:27.886Z,8.07
2023-04-17T16:14:31.200Z,8.63
2023-04-17T16:19:35.492Z,8.82
2023-04-17T16:24:40.525Z,8.20
2023-04-17T16:29:44.418Z,7.82
2023-04-17T16:34:48.658Z,7.93
2023-04-17T16:39:53.582Z,7.67
2023-04-17T16:44:56.835Z,7.40
2023-04-17T16:50:00.096Z,7.53
2023-04-17T16:55:08.568Z,8.63
2023-04-17T17:00:14.003Z,11.03
2023-04-17T17:05:17.531Z,10.57
2023-04-17T17:10:22.261Z,10.50
2023-04-17T17:15:25.781Z,10.63
2023-04-17T17:20:30.334Z,12.67
2023-04-17T17:25:34.861Z,12.23
2023-04-17T17:30:41.033Z,12.20
2023-04-17T17:35:44.414Z,12.87
2023-04-17T17:41:12.890Z,13.30
2023-04-17T17:46:19.472Z,12.00
2023-04-17T17:51:23.871Z,13.10
2023-04-17T17:56:31.326Z,13.57
2023-04-17T18:01:34.890Z,10.33
2023-04-17T18:06:58.173Z,10.67
2023-04-17T18:12:08.667Z,11.03
2023-04-17T18:17:11.965Z,10.83
2023-04-17T18:22:15.586Z,9.93
2023-04-17T18:27:21.061Z,10.47
2023-04-17T18:32:24.829Z,8.93
2023-04-17T18:37:28.207Z,7.47
2023-04-17T18:42:33.128Z,7.77
2023-04-17T18:47:37.258Z,7.37
2023-04-17T18:52:45.029Z,7.30
2023-04-17T18:57:56.903Z,7.17
2023-04-17T19:03:02.541Z,7.13
2023-04-17T19:08:41.620Z,7.50
2023-04-17T19:13:48.091Z,7.73
2023-04-17T19:18:57.957Z,8.40
2023-04-17T19:24:01.213Z,7.93
2023-04-17T19:29:06.133Z,7.40
2023-04-17T19:34:10.664Z,6.67
2023-04-17T19:39:14.505Z,6.73
2023-04-17T19:44:19.457Z,6.27
2023-04-17T19:49:24.045Z,6.70
2023-04-17T19:54:28.296Z,6.97
2023-04-17T19:59:33.071Z,6.80
2023-04-17T20:04:36.392Z,7.30
2023-04-17T20:09:39.789Z,8.57
2023-04-17T20:14:44.687Z,8.27
2023-04-17T20:19:47.961Z,7.47
2023-04-17T20:24:51.173Z,7.67
2023-04-17T20:29:55.788Z,10.57
2023-04-17T20:34:59.203Z,8.17
2023-04-17T20:40:11.958Z,7.43
2023-04-17T20:45:20.884Z,6.90
2023-04-17T20:50:24.348Z,6.20
2023-04-17T20:55:28.152Z,5.83
2023-04-17T21:00:44.546Z,5.97
2023-04-17T21:05:57.889Z,5.77
2023-04-17T21:11:06.273Z,6.60
2023-04-17T21:16:12.970Z,6.60
2023-04-17T21:21:16.366Z,6.90
2023-04-17T21:26:19.739Z,8.73
2023-04-17T21:31:24.680Z,8.00
2023-04-17T21:36:28.726Z,6.30
2023-04-17T21:41:32.176Z,6.87
2023-04-17T21:46:36.834Z,7.40
2023-04-17T21:51:39.929Z,7.23
2023-04-17T21:56:43.004Z,7.63
2023-04-17T22:01:47.617Z,8.00
2023-04-17T22:06:51.828Z,8.30
2023-04-17T22:11:55.038Z,8.57
2023-04-17T22:16:59.624Z,8.47
2023-04-17T22:22:02.968Z,9.73
2023-04-17T22:27:06.131Z,9.13
2023-04-17T22:32:11.199Z,8.77
2023-04-17T22:37:14.452Z,9.43
2023-04-17T22:42:17.562Z,9.47
2023-04-17T22:47:22.902Z,9.83
2023-04-17T22:52:26.100Z,10.87
2023-04-17T22:57:29.431Z,10.40
2023-04-17T23:02:34.255Z,10.10
2023-04-17T23:07:37.760Z,10.07
2023-04-17T23:12:41.117Z,10.47
2023-04-17T23:17:46.233Z,11.33
2023-04-17T23:22:49.494Z,10.60
2023-04-17T23:27:52.625Z,10.37
2023-04-17T23:32:57.449Z,10.77
2023-04-17T23:38:00.836Z,11.43
2023-04-17T23:43:03.947Z,11.83
2023-04-17T23:48:08.597Z,12.40
2023-04-17T23:53:11.773Z,11.50
2023-04-17T23:58:14.993Z,10.63
